createdAt,value
2019-02-23T00:01:07.595Z,100359.16
2019-02-23T00:03:43.656Z,100357.23
2019-02-23T00:06:29.021Z,100357.23
2019-02-23T00:08:53.271Z,100351.08
2019-02-23T00:11:29.336Z,100349.62
2019-02-23T00:16:40.753Z,100352.67
2019-02-23T00:19:24.393Z,100343.13
2019-02-23T00:22:15.382Z,100347.45
2019-02-23T00:24:51.290Z,100347.35
2019-02-23T00:27:26.291Z,100347.68
2019-02-23T00:30:01.088Z,100345.63
2019-02-23T00:32:36.149Z,100342.00
2019-02-23T00:35:11.122Z,100339.17
2019-02-23T00:39:37.888Z,100343.83
2019-02-23T00:42:10.880Z,100343.83
2019-02-23T00:44:45.149Z,100342.47
2019-02-23T00:49:04.952Z,100355.63
2019-02-23T00:51:41.645Z,100355.63
2019-02-23T00:54:16.138Z,100353.13
2019-02-23T00:56:50.755Z,100355.15
2019-02-23T00:59:25.287Z,100347.44
2019-02-23T01:01:59.887Z,100354.15
2019-02-23T01:04:32.775Z,100362.76
2019-02-23T01:07:07.256Z,100361.06
2019-02-23T01:09:41.762Z,100368.11
2019-02-23T01:12:15.066Z,100356.31
2019-02-23T01:14:47.857Z,100358.02
2019-02-23T01:17:22.285Z,100361.63
2019-02-23T01:19:56.882Z,100361.63
2019-02-23T01:22:29.903Z,100369.47
2019-02-23T01:25:04.307Z,100370.60
2019-02-23T01:27:38.944Z,100361.16
2019-02-23T01:30:14.382Z,100357.88
2019-02-23T01:32:48.962Z,100353.59
2019-02-23T01:35:23.368Z,100350.17
2019-02-23T01:37:58.267Z,100353.70
2019-02-23T01:40:34.294Z,100345.52
2019-02-23T01:43:09.245Z,100345.52
2019-02-23T01:45:44.077Z,100344.03
2019-02-23T01:48:19.907Z,100345.19
2019-02-23T01:50:58.307Z,100349.05
2019-02-23T01:53:33.290Z,100348.58
2019-02-23T01:56:08.119Z,100341.66
2019-02-23T01:58:43.945Z,100344.06
2019-02-23T02:01:20.275Z,100334.16
2019-02-23T02:03:54.914Z,100319.53
2019-02-23T02:06:33.657Z,100319.53
2019-02-23T02:09:12.306Z,100293.19
2019-02-23T02:11:48.266Z,100293.19
2019-02-23T02:14:22.794Z,100296.58
2019-02-23T02:16:58.298Z,100295.68
2019-02-23T02:19:38.311Z,100293.66
2019-02-23T02:22:13.156Z,100292.06
2019-02-23T02:24:47.743Z,100284.69
2019-02-23T02:27:22.319Z,100282.72
2019-02-23T02:29:57.374Z,100272.19
2019-02-23T02:32:34.707Z,100262.98
2019-02-23T02:35:11.411Z,100262.98
2019-02-23T02:37:47.310Z,100265.05
2019-02-23T02:40:21.963Z,100269.13
2019-02-23T02:42:55.025Z,100263.78
2019-02-23T02:45:29.309Z,100266.41
2019-02-23T02:48:05.820Z,100271.39
2019-02-23T02:50:38.887Z,100273.55
2019-02-23T02:53:14.075Z,100281.16
2019-02-23T02:55:47.096Z,100271.63
2019-02-23T02:58:23.269Z,100265.25
2019-02-23T03:00:58.306Z,100265.25
2019-02-23T03:03:33.149Z,100255.84
2019-02-23T03:06:07.955Z,100265.15
2019-02-23T03:08:52.306Z,100263.69
2019-02-23T03:11:36.685Z,100273.78
2019-02-23T03:14:22.990Z,100270.50
2019-02-23T03:17:01.769Z,100272.75
2019-02-23T03:19:46.445Z,100277.64
2019-02-23T03:22:20.913Z,100285.67
2019-02-23T03:25:04.217Z,100275.14
2019-02-23T03:27:39.975Z,100264.02
2019-02-23T03:30:15.306Z,100259.70
2019-02-23T03:32:50.316Z,100259.70
2019-02-23T03:35:25.322Z,100263.45
2019-02-23T03:38:04.971Z,100265.48
2019-02-23T03:40:41.977Z,100259.37
2019-02-23T03:43:16.966Z,100262.75
2019-02-23T03:45:57.972Z,100262.75
2019-02-23T03:48:32.956Z,100264.67
2019-02-23T03:51:29.421Z,100266.40
2019-02-23T03:53:51.116Z,100266.40
2019-02-23T03:56:26.289Z,100254.14
2019-02-23T03:59:24.856Z,100254.14
2019-02-23T04:01:59.995Z,100259.58
2019-02-23T04:04:34.931Z,100253.19
2019-02-23T04:07:08.285Z,100253.19
2019-02-23T04:09:46.415Z,100258.31
2019-02-23T04:12:29.926Z,100262.30
2019-02-23T04:15:40.988Z,100261.37
2019-02-23T04:18:19.976Z,100261.37
2019-02-23T04:21:01.749Z,100271.13
2019-02-23T04:23:33.122Z,100275.76
2019-02-23T04:26:17.743Z,100287.44
2019-02-23T04:28:52.319Z,100287.44
2019-02-23T04:31:27.966Z,100272.33
2019-02-23T04:34:02.798Z,100271.08
2019-02-23T04:36:37.090Z,100271.08
2019-02-23T04:39:22.016Z,100247.63
2019-02-23T04:41:56.992Z,100244.31
2019-02-23T04:44:31.685Z,100244.31
2019-02-23T04:47:05.296Z,100241.80
2019-02-23T04:49:40.273Z,100242.08
2019-02-23T04:52:15.295Z,100238.34
2019-02-23T04:54:50.677Z,100238.34
2019-02-23T04:57:25.761Z,100238.10
2019-02-23T05:00:10.317Z,100222.06
2019-02-23T05:02:45.304Z,100222.06
2019-02-23T05:05:48.823Z,100227.34
2019-02-23T05:08:26.715Z,100211.52
2019-02-23T05:14:15.075Z,100196.75
2019-02-23T05:16:53.310Z,100213.75
2019-02-23T05:19:28.310Z,100213.75
2019-02-23T05:22:03.467Z,100213.51
2019-02-23T05:24:43.200Z,100227.63
2019-02-23T05:27:54.315Z,100227.63
2019-02-23T05:30:34.565Z,100233.16
2019-02-23T05:34:12.406Z,100233.16
2019-02-23T05:37:30.017Z,100236.58
2019-02-23T05:41:07.832Z,100247.03
2019-02-23T05:43:46.292Z,100247.03
2019-02-23T05:46:26.613Z,100255.80
2019-02-23T05:49:12.305Z,100249.44
2019-02-23T05:52:21.765Z,100245.72
2019-02-23T06:01:39.175Z,100270.02
2019-02-23T06:04:13.956Z,100273.98
2019-02-23T06:06:59.653Z,100286.08
2019-02-23T06:09:42.296Z,100286.08
2019-02-23T06:12:17.289Z,100278.42
2019-02-23T06:14:53.306Z,100269.40
2019-02-23T06:17:28.312Z,100264.98
2019-02-23T06:20:03.332Z,100269.63
2019-02-23T06:22:46.907Z,100273.59
2019-02-23T06:25:47.725Z,100276.08
2019-02-23T06:28:58.671Z,100280.95
2019-02-23T06:31:31.284Z,100277.17
2019-02-23T06:34:32.377Z,100272.16
2019-02-23T06:37:40.807Z,100272.16
2019-02-23T06:40:20.721Z,100273.29
2019-02-23T06:43:22.837Z,100293.73
2019-02-23T06:46:33.578Z,100290.00
2019-02-23T06:49:22.907Z,100301.57
2019-02-23T06:52:10.655Z,100315.73
2019-02-23T06:55:08.721Z,100311.70
2019-02-23T06:57:43.494Z,100315.36
2019-02-23T07:00:23.612Z,100312.31
2019-02-23T07:03:20.014Z,100317.70
2019-02-23T07:06:07.971Z,100329.17
2019-02-23T07:08:48.300Z,100351.55
2019-02-23T07:11:26.398Z,100351.55
2019-02-23T07:14:14.668Z,100360.95
2019-02-23T07:16:52.339Z,100363.56
2019-02-23T07:19:46.250Z,100374.69
2019-02-23T07:22:22.301Z,100376.09
2019-02-23T07:24:57.107Z,100377.04
2019-02-23T07:27:34.611Z,100381.60
2019-02-23T07:30:11.562Z,100387.97
2019-02-23T07:32:47.361Z,100392.07
2019-02-23T07:35:27.954Z,100392.23
2019-02-23T07:38:10.885Z,100396.58
2019-02-23T07:40:53.395Z,100396.58
2019-02-23T07:43:28.505Z,100388.25
2019-02-23T07:46:12.312Z,100399.30
2019-02-23T07:48:54.625Z,100404.64
2019-02-23T07:51:29.496Z,100408.97
2019-02-23T07:54:04.468Z,100420.37
2019-02-23T07:58:17.969Z,100407.65
2019-02-23T08:00:54.521Z,100389.08
2019-02-23T08:03:53.217Z,100389.08
2019-02-23T08:07:02.593Z,100401.42
2019-02-23T08:09:47.643Z,100402.16
2019-02-23T08:12:25.294Z,100409.94
2019-02-23T08:15:03.966Z,100415.12
2019-02-23T08:18:07.010Z,100412.58
2019-02-23T08:21:34.896Z,100416.45
2019-02-23T08:24:13.155Z,100420.33
2019-02-23T08:26:52.285Z,100414.02
2019-02-23T08:29:26.949Z,100411.98
2019-02-23T08:32:15.145Z,100420.39
2019-02-23T08:35:07.873Z,100421.17
2019-02-23T08:37:50.311Z,100419.51
2019-02-23T08:40:23.585Z,100425.77
2019-02-23T08:43:02.969Z,100442.14
2019-02-23T08:45:39.960Z,100447.09
2019-02-23T08:48:14.889Z,100447.09
2019-02-23T08:50:48.134Z,100447.09
2019-02-23T08:53:22.964Z,100442.84
2019-02-23T08:55:57.972Z,100442.84
2019-02-23T08:58:39.958Z,100451.90
2019-02-23T09:01:25.577Z,100439.79
2019-02-23T09:04:25.619Z,100439.79
2019-02-23T09:07:09.418Z,100446.14
2019-02-23T09:09:45.297Z,100433.48
2019-02-23T09:12:25.571Z,100415.88
2019-02-23T09:15:02.324Z,100413.34
2019-02-23T09:17:37.328Z,100412.30
2019-02-23T09:20:29.279Z,100409.48
2019-02-23T09:23:04.987Z,100405.67
2019-02-23T09:25:44.967Z,100402.90
2019-02-23T09:28:25.516Z,100398.37
2019-02-23T09:31:05.912Z,100398.37
2019-02-23T09:33:41.431Z,100393.82
2019-02-23T09:36:25.322Z,100385.31
2019-02-23T09:39:14.958Z,100381.95
2019-02-23T09:42:07.402Z,100384.19
2019-02-23T09:44:46.546Z,100385.70
2019-02-23T09:47:24.594Z,100382.75
2019-02-23T09:50:36.568Z,100391.91
2019-02-23T09:53:41.227Z,100384.15
2019-02-23T09:56:37.401Z,100383.34
2019-02-23T09:59:34.970Z,100383.34
2019-02-23T10:02:45.782Z,100384.68
2019-02-23T10:05:41.457Z,100377.11
2019-02-23T10:08:49.971Z,100377.11
2019-02-23T10:11:34.110Z,100375.48
2019-02-23T10:14:11.265Z,100371.86
2019-02-23T10:17:12.746Z,100364.71
2019-02-23T10:20:18.875Z,100363.09
2019-02-23T10:23:00.479Z,100363.09
2019-02-23T10:25:38.775Z,100376.53
2019-02-23T10:28:13.283Z,100364.05
2019-02-23T10:30:51.282Z,100361.56
2019-02-23T10:33:30.371Z,100362.05
2019-02-23T10:36:05.154Z,100359.78
2019-02-23T10:38:43.288Z,100352.35
2019-02-23T10:46:21.699Z,100343.32
2019-02-23T10:49:02.013Z,100331.80
2019-02-23T10:51:38.117Z,100324.69
2019-02-23T10:54:22.138Z,100310.82
2019-02-23T10:57:08.566Z,100297.59
2019-02-23T10:59:43.777Z,100297.59
2019-02-23T11:02:39.120Z,100301.29
2019-02-23T11:05:20.971Z,100297.22
2019-02-23T11:07:59.263Z,100287.17
2019-02-23T11:10:35.433Z,100287.17
2019-02-23T11:13:16.543Z,100291.37
2019-02-23T11:15:51.406Z,100280.30
2019-02-23T11:18:27.447Z,100290.69
2019-02-23T11:21:03.390Z,100282.05
2019-02-23T11:23:44.327Z,100282.05
2019-02-23T11:26:23.566Z,100266.24
2019-02-23T11:28:58.371Z,100255.97
2019-02-23T11:31:37.582Z,100255.97
2019-02-23T11:34:22.155Z,100259.64
2019-02-23T11:37:00.422Z,100247.63
2019-02-23T11:39:37.400Z,100241.66
2019-02-23T11:42:12.304Z,100243.06
2019-02-23T11:44:49.312Z,100245.75
2019-02-23T11:47:27.301Z,100245.75
2019-02-23T11:50:02.459Z,100249.78
2019-02-23T11:52:39.611Z,100245.13
2019-02-23T11:55:17.645Z,100245.59
2019-02-23T11:57:55.242Z,100245.59
2019-02-23T12:00:33.374Z,100246.95
2019-02-23T12:03:13.322Z,100246.35
2019-02-23T12:05:55.151Z,100238.56
2019-02-23T12:08:32.313Z,100238.56
2019-02-23T12:11:11.497Z,100242.14
2019-02-23T12:13:47.894Z,100236.28
2019-02-23T12:16:22.443Z,100236.98
2019-02-23T12:18:58.613Z,100217.30
2019-02-23T12:21:38.309Z,100208.43
2019-02-23T12:24:23.970Z,100191.37
2019-02-23T12:27:02.599Z,100191.37
2019-02-23T12:29:56.960Z,100179.91
2019-02-23T12:32:35.262Z,100178.95
2019-02-23T12:35:10.725Z,100176.41
2019-02-23T12:37:44.130Z,100184.64
2019-02-23T12:40:20.598Z,100179.01
2019-02-23T12:42:56.308Z,100179.01
2019-02-23T12:45:44.921Z,100163.91
2019-02-23T12:48:21.419Z,100171.38
2019-02-23T12:50:56.303Z,100168.27
2019-02-23T12:53:31.285Z,100158.14
2019-02-23T12:56:14.982Z,100160.32
2019-02-23T12:58:53.339Z,100160.32
2019-02-23T13:01:36.109Z,100154.53
2019-02-23T13:04:14.301Z,100156.73
2019-02-23T13:06:49.301Z,100149.41
2019-02-23T13:09:29.569Z,100145.32
2019-02-23T13:12:57.948Z,100149.48
2019-02-23T13:16:02.527Z,100143.09
2019-02-23T13:19:34.290Z,100143.09
2019-02-23T13:22:58.288Z,100155.55
2019-02-23T13:26:57.506Z,100162.00
2019-02-23T13:30:24.501Z,100166.81
2019-02-23T13:33:53.407Z,100186.83
2019-02-23T13:37:13.877Z,100180.12
2019-02-23T13:40:43.934Z,100180.12
2019-02-23T13:44:08.306Z,100178.84
2019-02-23T13:47:54.577Z,100178.84
2019-02-23T13:51:17.896Z,100175.33
2019-02-23T13:54:18.683Z,100183.37
2019-02-23T13:57:58.380Z,100182.27
2019-02-23T14:01:34.981Z,100180.17
2019-02-23T14:05:20.958Z,100183.63
2019-02-23T14:08:55.759Z,100188.59
2019-02-23T14:12:05.964Z,100188.59
2019-02-23T14:16:05.372Z,100199.05
2019-02-23T14:19:21.741Z,100206.20
2019-02-23T14:22:45.131Z,100206.20
2019-02-23T14:26:08.319Z,100198.09
2019-02-23T14:29:16.939Z,100196.17
2019-02-23T14:32:48.296Z,100192.22
2019-02-23T14:35:59.330Z,100191.81
2019-02-23T14:39:34.294Z,100191.81
2019-02-23T14:42:32.677Z,100183.13
2019-02-23T14:45:52.193Z,100183.13
2019-02-23T14:48:56.075Z,100183.76
2019-02-23T14:52:36.419Z,100177.43
2019-02-23T14:56:12.350Z,100177.43
2019-02-23T14:59:40.025Z,100171.38
2019-02-23T15:02:36.298Z,100151.12
2019-02-23T15:06:04.325Z,100140.49
2019-02-23T15:09:51.206Z,100137.60
2019-02-23T15:13:35.820Z,100137.60
2019-02-23T15:16:57.659Z,100126.63
2019-02-23T15:20:10.489Z,100128.49
2019-02-23T15:23:25.298Z,100124.31
2019-02-23T15:26:44.906Z,100121.42
2019-02-23T15:30:40.275Z,100110.45
2019-02-23T15:34:00.297Z,100103.24
2019-02-23T15:37:41.962Z,100104.91
2019-02-23T15:40:47.162Z,100100.50
2019-02-23T15:44:21.800Z,100100.50
2019-02-23T15:47:34.661Z,100098.74
2019-02-23T15:50:21.449Z,100105.89
2019-02-23T15:53:03.522Z,100095.06
2019-02-23T15:55:47.395Z,100093.10
2019-02-23T15:58:37.392Z,100100.95
2019-02-23T16:01:18.594Z,100106.89
2019-02-23T16:04:07.567Z,100106.30
2019-02-23T16:06:54.005Z,100099.02
2019-02-23T16:12:58.104Z,100097.45
2019-02-23T16:15:48.981Z,100100.78
2019-02-23T16:18:59.710Z,100097.59
2019-02-23T16:25:38.540Z,100104.64
2019-02-23T16:28:29.692Z,100111.89
2019-02-23T16:31:20.285Z,100115.58
2019-02-23T16:34:07.176Z,100116.30
2019-02-23T16:37:10.448Z,100119.70
2019-02-23T16:40:14.267Z,100119.23
2019-02-23T16:43:09.969Z,100119.53
2019-02-23T16:46:11.098Z,100124.54
2019-02-23T16:49:25.784Z,100125.59
2019-02-23T16:52:13.394Z,100122.03
2019-02-23T16:54:50.314Z,100115.08
2019-02-23T16:57:27.313Z,100123.36
2019-02-23T17:00:03.484Z,100123.36
2019-02-23T17:02:43.450Z,100129.77
2019-02-23T17:05:20.805Z,100136.32
2019-02-23T17:07:58.985Z,100142.66
2019-02-23T17:10:51.837Z,100144.17
2019-02-23T17:13:25.306Z,100142.41
2019-02-23T17:16:05.575Z,100143.32
2019-02-23T17:18:51.048Z,100141.73
2019-02-23T17:21:30.302Z,100131.45
2019-02-23T17:24:09.705Z,100142.66
2019-02-23T17:26:46.685Z,100142.66
2019-02-23T17:29:35.151Z,100143.14
2019-02-23T17:32:04.703Z,100147.08
2019-02-23T17:34:39.304Z,100151.73
2019-02-23T17:37:38.420Z,100156.63
2019-02-23T17:40:08.831Z,100146.78
2019-02-23T17:42:43.297Z,100144.72
2019-02-23T17:48:27.765Z,100133.77
2019-02-23T17:51:20.310Z,100139.13
2019-02-23T17:53:55.302Z,100132.42
2019-02-23T17:56:32.252Z,100141.28
2019-02-23T17:59:18.993Z,100141.28
2019-02-23T18:01:54.118Z,100126.46
2019-02-23T18:04:28.433Z,100126.46
2019-02-23T18:07:21.118Z,100124.61
2019-02-23T18:10:29.603Z,100127.92
2019-02-23T18:13:07.273Z,100129.03
2019-02-23T18:15:48.516Z,100131.38
2019-02-23T18:18:25.317Z,100133.89
2019-02-23T18:21:04.803Z,100121.49
2019-02-23T18:23:54.324Z,100128.16
2019-02-23T18:26:30.451Z,100132.41
2019-02-23T18:29:05.301Z,100120.39
2019-02-23T18:31:57.421Z,100111.95
2019-02-23T18:34:48.349Z,100110.59
2019-02-23T18:37:23.286Z,100115.27
2019-02-23T18:40:01.443Z,100104.48
2019-02-23T18:42:39.346Z,100113.69
2019-02-23T18:45:20.118Z,100121.20
2019-02-23T18:48:10.575Z,100116.47
2019-02-23T18:50:47.462Z,100116.20
2019-02-23T18:53:24.621Z,100114.27
2019-02-23T18:56:36.724Z,100112.81
2019-02-23T18:59:34.654Z,100112.94
2019-02-23T19:02:36.756Z,100113.52
2019-02-23T19:06:05.503Z,100113.52
2019-02-23T19:09:29.956Z,100113.20
2019-02-23T19:12:19.643Z,100108.92
2019-02-23T19:15:11.621Z,100111.87
2019-02-23T19:17:46.300Z,100110.95
2019-02-23T19:20:48.126Z,100102.38
2019-02-23T19:23:23.292Z,100102.38
2019-02-23T19:26:02.938Z,100110.51
2019-02-23T19:28:43.194Z,100109.63
2019-02-23T19:31:16.313Z,100108.08
2019-02-23T19:33:56.165Z,100111.08
2019-02-23T19:36:37.492Z,100111.08
2019-02-23T19:39:11.945Z,100120.44
2019-02-23T19:41:47.899Z,100119.52
2019-02-23T19:44:24.288Z,100119.52
2019-02-23T19:47:09.096Z,100117.34
2019-02-23T19:49:50.284Z,100116.37
2019-02-23T19:52:29.153Z,100108.65
2019-02-23T19:55:04.296Z,100108.65
2019-02-23T19:57:46.987Z,100113.63
2019-02-23T20:00:23.291Z,100110.41
2019-02-23T20:03:01.519Z,100110.41
2019-02-23T20:05:42.793Z,100114.86
2019-02-23T20:08:21.730Z,100110.31
2019-02-23T20:11:01.185Z,100110.31
2019-02-23T20:13:37.301Z,100103.07
2019-02-23T20:16:16.074Z,100107.50
2019-02-23T20:18:52.128Z,100106.70
2019-02-23T20:21:34.570Z,100109.17
2019-02-23T20:24:21.587Z,100109.17
2019-02-23T20:27:07.683Z,100111.06
2019-02-23T20:29:49.701Z,100109.77
2019-02-23T20:32:34.315Z,100104.59
2019-02-23T20:35:18.020Z,100102.34
2019-02-23T20:37:56.332Z,100110.50
2019-02-23T20:40:33.301Z,100112.88
2019-02-23T20:43:08.305Z,100111.87
2019-02-23T20:45:43.368Z,100104.37
2019-02-23T20:48:26.397Z,100101.85
2019-02-23T20:51:12.425Z,100101.58
2019-02-23T20:54:05.299Z,100096.90
2019-02-23T20:56:45.426Z,100096.90
2019-02-23T20:59:31.273Z,100097.25
2019-02-23T21:02:48.681Z,100098.84
2019-02-23T21:05:44.653Z,100086.09
2019-02-23T21:08:29.871Z,100086.09
2019-02-23T21:11:13.059Z,100095.16
2019-02-23T21:14:06.311Z,100092.14
2019-02-23T21:16:41.500Z,100092.14
2019-02-23T21:19:28.176Z,100096.18
2019-02-23T21:21:59.502Z,100092.81
2019-02-23T21:24:51.684Z,100091.80
2019-02-23T21:27:29.956Z,100095.16
2019-02-23T21:30:08.358Z,100090.22
2019-02-23T21:32:44.301Z,100090.22
2019-02-23T21:35:21.294Z,100090.56
2019-02-23T21:37:55.989Z,100091.52
2019-02-23T21:40:32.392Z,100083.89
2019-02-23T21:43:12.748Z,100083.89
2019-02-23T21:45:49.368Z,100089.49
2019-02-23T21:48:25.306Z,100092.89
2019-02-23T21:50:59.943Z,100092.28
2019-02-23T21:53:33.154Z,100089.49
2019-02-23T21:56:21.284Z,100080.66
2019-02-23T21:59:04.858Z,100080.66
2019-02-23T22:01:49.573Z,100079.71
2019-02-23T22:04:24.310Z,100079.14
2019-02-23T22:07:12.638Z,100080.98
2019-02-23T22:09:50.304Z,100080.98
2019-02-23T22:12:24.933Z,100075.96
2019-02-23T22:15:12.292Z,100073.96
2019-02-23T22:17:48.942Z,100072.95
2019-02-23T22:20:30.949Z,100072.95
2019-02-23T22:23:07.288Z,100073.02
2019-02-23T22:25:44.949Z,100073.23
2019-02-23T22:28:22.334Z,100063.52
2019-02-23T22:31:10.991Z,100063.52
2019-02-23T22:34:01.393Z,100057.13
2019-02-23T22:36:37.303Z,100056.91
2019-02-23T22:39:11.952Z,100056.91
2019-02-23T22:42:08.173Z,100059.42
2019-02-23T22:44:43.421Z,100065.23
2019-02-23T22:47:21.969Z,100060.28
2019-02-23T22:52:26.434Z,100068.63
2019-02-23T22:55:06.980Z,100065.75
2019-02-23T22:57:45.300Z,100059.62
2019-02-23T23:00:48.374Z,100056.47
2019-02-23T23:03:42.809Z,100054.59
2019-02-23T23:06:21.308Z,100055.52
2019-02-23T23:09:02.144Z,100052.73
2019-02-23T23:11:38.928Z,100047.48
2019-02-23T23:14:24.616Z,100048.20
2019-02-23T23:17:32.330Z,100056.84
2019-02-23T23:20:17.245Z,100052.66
2019-02-23T23:23:11.304Z,100052.66
2019-02-23T23:26:01.210Z,100056.25
2019-02-23T23:28:40.586Z,100064.16
2019-02-23T23:31:32.425Z,100057.97
2019-02-23T23:34:17.606Z,100051.58
2019-02-23T23:37:16.770Z,100047.98
2019-02-23T23:39:50.481Z,100046.17
2019-02-23T23:42:25.295Z,100053.89
2019-02-23T23:45:07.601Z,100037.64
2019-02-23T23:47:43.788Z,100037.64
2019-02-23T23:50:17.149Z,100046.24
2019-02-23T23:52:53.151Z,100045.52
2019-02-23T23:55:27.979Z,100029.00
2019-02-23T23:58:03.965Z,100032.08
